Time,TemperatureF,DewpointF,PressureIn,WindDirection,WindDirectionDegrees,WindSpeedMPH,WindSpeedGustMPH,Humidity,HourlyPrecipIn,Conditions,Clouds,dailyrainin,SoftwareType,DateUTC
2013-11-29 00:22:00,14.0,12.0,30.41,SSW,200,7.0,10.0,90,-99.99,,,-99.99,,2013-11-29 05:22:00,
2013-11-29 00:43:00,14.0,12.0,30.41,SSW,205,6.0,10.0,90,-99.99,,,-99.99,,2013-11-29 05:43:00,
2013-11-29 01:22:00,14.0,11.0,30.45,SW,225,7.0,12.0,90,-99.99,,,-99.99,,2013-11-29 06:22:00,
2013-11-29 01:42:00,14.0,11.0,30.45,SW,220,7.0,11.0,90,-99.99,,,-99.99,,2013-11-29 06:42:00,
2013-11-29 02:12:00,13.0,11.0,30.45,SSW,205,7.0,10.0,90,-99.99,,,-99.99,,2013-11-29 07:12:00,
2013-11-29 02:21:00,13.0,11.0,30.45,SSW,205,7.0,10.0,90,-99.99,,,-99.99,,2013-11-29 07:21:00,
2013-11-29 02:52:00,13.0,10.0,30.45,SSW,195,9.0,13.0,89,-99.99,,,-99.99,,2013-11-29 07:52:00,
2013-11-29 03:01:00,13.0,10.0,30.45,SSW,195,9.0,13.0,89,-99.99,,,-99.99,,2013-11-29 08:01:00,
2013-11-29 03:21:00,13.0,10.0,30.45,SSW,205,8.0,13.0,88,-99.99,,,-99.99,,2013-11-29 08:21:00,
2013-11-29 04:22:00,13.0,10.0,30.48,SSW,200,8.0,13.0,88,-99.99,,,-99.99,,2013-11-29 09:22:00,
2013-11-29 05:23:00,13.0,10.0,30.49,SW,220,8.0,11.0,89,-99.99,,,-99.99,,2013-11-29 10:23:00,
2013-11-29 06:22:00,12.0,10.0,30.49,SW,215,9.0,12.0,90,-99.99,,,-99.99,,2013-11-29 11:22:00,
2013-11-29 07:22:00,14.0,11.0,30.52,SSW,205,9.0,12.0,88,-99.99,,,-99.99,,2013-11-29 12:22:00,
2013-11-29 07:42:00,14.0,11.0,30.52,SSW,210,9.0,13.0,89,-99.99,,,-99.99,,2013-11-29 12:42:00,
2013-11-29 07:52:00,14.0,11.0,30.52,SSW,210,9.0,12.0,88,-99.99,,,-99.99,,2013-11-29 12:52:00,
2013-11-29 08:22:00,13.0,10.0,30.52,SSW,205,9.0,12.0,89,-99.99,,,-99.99,,2013-11-29 13:22:00,
2013-11-29 09:22:00,14.0,11.0,30.52,SSW,205,9.0,12.0,89,-99.99,,,-99.99,,2013-11-29 14:22:00,
2013-11-29 09:42:00,16.0,13.0,30.52,SSW,200,9.0,12.0,87,-99.99,,,-99.99,,2013-11-29 14:42:00,
2013-11-29 10:22:00,17.0,13.0,30.52,SSW,210,8.0,12.0,83,-99.99,,,-99.99,,2013-11-29 15:22:00,
2013-11-29 10:53:00,21.0,16.0,30.57,SSW,210,8.0,12.0,79,-99.99,,,-99.99,,2013-11-29 15:53:00,
2013-11-29 11:23:00,24.0,17.0,30.57,SSW,200,9.0,12.0,75,-99.99,,,-99.99,,2013-11-29 16:23:00,
2013-11-29 12:22:00,26.0,19.0,30.56,SW,225,7.0,12.0,75,-99.99,,,-99.99,,2013-11-29 17:22:00,
2013-11-29 12:43:00,27.0,19.0,30.56,SW,230,8.0,12.0,73,-99.99,,,-99.99,,2013-11-29 17:43:00,
2013-11-29 13:22:00,28.0,19.0,30.55,SSW,195,8.0,11.0,68,-99.99,,,-99.99,,2013-11-29 18:22:00,
2013-11-29 13:33:00,28.0,19.0,30.55,SSW,195,8.0,11.0,68,-99.99,,,-99.99,,2013-11-29 18:33:00,
2013-11-29 13:42:00,28.0,19.0,30.55,SSW,195,8.0,11.0,68,-99.99,,,-99.99,,2013-11-29 18:42:00,
2013-11-29 14:22:00,27.0,17.0,30.55,SSW,200,8.0,13.0,66,-99.99,,,-99.99,,2013-11-29 19:22:00,
2013-11-29 14:32:00,27.0,17.0,30.55,SSW,200,8.0,13.0,66,-99.99,,,-99.99,,2013-11-29 19:32:00,
2013-11-29 15:42:00,27.0,18.0,30.55,SSW,195,6.0,10.0,68,-99.99,,,-99.99,,2013-11-29 20:42:00,
2013-11-29 16:22:00,27.0,19.0,30.49,SSW,200,7.0,13.0,71,-99.99,,,-99.99,,2013-11-29 21:22:00,
2013-11-29 17:23:00,26.0,18.0,30.49,SSW,200,7.0,12.0,72,-99.99,,,-99.99,,2013-11-29 22:23:00,
2013-11-29 18:22:00,25.0,19.0,30.48,South,170,7.0,12.0,76,-99.99,,,-99.99,,2013-11-29 23:22:00,
2013-11-29 18:42:00,25.0,18.0,30.48,SSW,195,7.0,11.0,75,-99.99,,,-99.99,,2013-11-29 23:42:00,
2013-11-29 19:21:00,25.0,18.0,30.45,SSW,210,9.0,13.0,74,-99.99,,,-99.99,,2013-11-30 00:21:00,
2013-11-29 19:42:00,25.0,18.0,30.45,South,185,7.0,13.0,75,-99.99,,,-99.99,,2013-11-30 00:42:00,
2013-11-29 20:21:00,26.0,18.0,30.45,South,185,8.0,15.0,72,-99.99,,,-99.99,,2013-11-30 01:21:00,
2013-11-29 21:22:00,26.0,17.0,30.45,SW,220,9.0,16.0,68,-99.99,,,-99.99,,2013-11-30 02:22:00,
2013-11-29 21:42:00,26.0,18.0,30.45,SSE,165,8.0,17.0,70,-99.99,,,-99.99,,2013-11-30 02:42:00,
2013-11-29 22:22:00,26.0,18.0,30.40,SSW,210,10.0,18.0,72,-99.99,,,-99.99,,2013-11-30 03:22:00,
2013-11-29 22:43:00,25.0,18.0,30.40,SSW,200,10.0,14.0,73,-99.99,,,-99.99,,2013-11-30 03:43:00,
2013-11-29 23:23:00,26.0,18.0,30.36,SSW,195,9.0,18.0,73,-99.99,,,-99.99,,2013-11-30 04:23:00,
2013-11-29 23:43:00,26.0,18.0,30.36,South,180,10.0,18.0,72,-99.99,,,-99.99,,2013-11-30 04:43:00,